sensor_id;sensor_type;location;lat;lon;timestamp;P1;durP1;ratioP1;P2;durP2;ratioP2
19193;SDS011;9729;52.296;13.260;2022-11-20T00:00:46;30.07;;;14.47;;
19193;SDS011;9729;52.296;13.260;2022-11-20T00:03:12;28.93;;;15.27;;
19193;SDS011;9729;52.296;13.260;2022-11-20T00:05:38;31.63;;;16.03;;
19193;SDS011;9729;52.296;13.260;2022-11-20T00:08:06;30.70;;;13.90;;
19193;SDS011;9729;52.296;13.260;2022-11-20T00:10:32;23.57;;;13.80;;
19193;SDS011;9729;52.296;13.260;2022-11-20T00:13:02;28.20;;;15.43;;
19193;SDS011;9729;52.296;13.260;2022-11-20T00:15:28;30.30;;;13.20;;
19193;SDS011;9729;52.296;13.260;2022-11-20T00:17:54;25.90;;;14.77;;
19193;SDS011;9729;52.296;13.260;2022-11-20T00:20:21;28.83;;;14.57;;
19193;SDS011;9729;52.296;13.260;2022-11-20T00:22:47;27.83;;;14.87;;
19193;SDS011;9729;52.296;13.260;2022-11-20T00:25:15;30.00;;;13.60;;
19193;SDS011;9729;52.296;13.260;2022-11-20T00:27:42;33.70;;;15.47;;
19193;SDS011;9729;52.296;13.260;2022-11-20T00:30:08;30.17;;;14.77;;
19193;SDS011;9729;52.296;13.260;2022-11-20T00:32:35;23.70;;;14.03;;
19193;SDS011;9729;52.296;13.260;2022-11-20T00:35:01;30.27;;;16.07;;
19193;SDS011;9729;52.296;13.260;2022-11-20T00:37:28;27.83;;;14.90;;
19193;SDS011;9729;52.296;13.260;2022-11-20T00:39:54;28.03;;;13.63;;
19193;SDS011;9729;52.296;13.260;2022-11-20T00:42:22;33.30;;;15.63;;
19193;SDS011;9729;52.296;13.260;2022-11-20T00:44:48;30.90;;;15.80;;
19193;SDS011;9729;52.296;13.260;2022-11-20T00:47:14;28.07;;;13.97;;
19193;SDS011;9729;52.296;13.260;2022-11-20T00:49:41;27.30;;;13.93;;
19193;SDS011;9729;52.296;13.260;2022-11-20T00:52:07;24.97;;;14.60;;
19193;SDS011;9729;52.296;13.260;2022-11-20T00:54:33;31.43;;;15.27;;
19193;SDS011;9729;52.296;13.260;2022-11-20T00:57:00;27.43;;;15.10;;
19193;SDS011;9729;52.296;13.260;2022-11-20T00:59:27;28.03;;;15.57;;
19193;SDS011;9729;52.296;13.260;2022-11-20T01:01:54;27.83;;;16.87;;
19193;SDS011;9729;52.296;13.260;2022-11-20T01:04:20;31.13;;;15.97;;
19193;SDS011;9729;52.296;13.260;2022-11-20T01:06:46;27.40;;;13.87;;
19193;SDS011;9729;52.296;13.260;2022-11-20T01:09:13;25.53;;;14.37;;
19193;SDS011;9729;52.296;13.260;2022-11-20T01:11:41;27.43;;;13.70;;
19193;SDS011;9729;52.296;13.260;2022-11-20T01:14:11;28.50;;;14.13;;
19193;SDS011;9729;52.296;13.260;2022-11-20T01:16:40;26.57;;;13.10;;
19193;SDS011;9729;52.296;13.260;2022-11-20T01:19:09;26.00;;;14.30;;
19193;SDS011;9729;52.296;13.260;2022-11-20T01:21:37;28.87;;;14.63;;
19193;SDS011;9729;52.296;13.260;2022-11-20T01:24:06;27.40;;;13.87;;
19193;SDS011;9729;52.296;13.260;2022-11-20T01:26:34;29.73;;;13.67;;
19193;SDS011;9729;52.296;13.260;2022-11-20T01:29:02;31.70;;;14.37;;
19193;SDS011;9729;52.296;13.260;2022-11-20T01:31:30;28.00;;;15.73;;
19193;SDS011;9729;52.296;13.260;2022-11-20T01:33:59;28.23;;;14.23;;
19193;SDS011;9729;52.296;13.260;2022-11-20T01:36:27;27.30;;;13.87;;
19193;SDS011;9729;52.296;13.260;2022-11-20T01:38:55;27.37;;;13.90;;
19193;SDS011;9729;52.296;13.260;2022-11-20T01:41:22;23.37;;;13.10;;
19193;SDS011;9729;52.296;13.260;2022-11-20T01:44:08;28.90;;;13.47;;
19193;SDS011;9729;52.296;13.260;2022-11-20T01:46:36;23.17;;;13.90;;
19193;SDS011;9729;52.296;13.260;2022-11-20T01:49:05;24.00;;;12.80;;
19193;SDS011;9729;52.296;13.260;2022-11-20T01:51:38;24.37;;;13.30;;
19193;SDS011;9729;52.296;13.260;2022-11-20T01:54:06;26.37;;;14.57;;
19193;SDS011;9729;52.296;13.260;2022-11-20T01:56:35;24.57;;;12.60;;
19193;SDS011;9729;52.296;13.260;2022-11-20T01:59:03;28.93;;;14.70;;
19193;SDS011;9729;52.296;13.260;2022-11-20T02:01:31;26.37;;;13.67;;
19193;SDS011;9729;52.296;13.260;2022-11-20T02:03:57;31.80;;;14.47;;
19193;SDS011;9729;52.296;13.260;2022-11-20T02:06:27;26.53;;;14.17;;
19193;SDS011;9729;52.296;13.260;2022-11-20T02:08:55;28.73;;;14.27;;
19193;SDS011;9729;52.296;13.260;2022-11-20T02:11:21;24.17;;;12.67;;
19193;SDS011;9729;52.296;13.260;2022-11-20T02:13:48;26.07;;;13.43;;
19193;SDS011;9729;52.296;13.260;2022-11-20T02:16:15;29.03;;;12.67;;
19193;SDS011;9729;52.296;13.260;2022-11-20T02:18:43;28.33;;;13.93;;
19193;SDS011;9729;52.296;13.260;2022-11-20T02:21:13;25.33;;;13.20;;
19193;SDS011;9729;52.296;13.260;2022-11-20T02:24:00;33.20;;;14.73;;
19193;SDS011;9729;52.296;13.260;2022-11-20T02:26:27;29.63;;;14.10;;
19193;SDS011;9729;52.296;13.260;2022-11-20T02:28:55;30.07;;;14.33;;
19193;SDS011;9729;52.296;13.260;2022-11-20T02:31:22;26.30;;;14.80;;
19193;SDS011;9729;52.296;13.260;2022-11-20T02:33:53;28.10;;;14.60;;
19193;SDS011;9729;52.296;13.260;2022-11-20T02:36:20;32.37;;;15.50;;
19193;SDS011;9729;52.296;13.260;2022-11-20T02:38:47;31.20;;;16.03;;
19193;SDS011;9729;52.296;13.260;2022-11-20T02:41:15;26.07;;;12.83;;
19193;SDS011;9729;52.296;13.260;2022-11-20T02:43:42;31.53;;;16.20;;
19193;SDS011;9729;52.296;13.260;2022-11-20T02:46:08;32.50;;;16.70;;
19193;SDS011;9729;52.296;13.260;2022-11-20T02:48:34;25.27;;;13.17;;
19193;SDS011;9729;52.296;13.260;2022-11-20T02:51:01;30.93;;;15.13;;
19193;SDS011;9729;52.296;13.260;2022-11-20T02:53:27;36.90;;;15.40;;
19193;SDS011;9729;52.296;13.260;2022-11-20T02:55:53;31.20;;;15.97;;
19193;SDS011;9729;52.296;13.260;2022-11-20T02:58:21;32.50;;;15.43;;
19193;SDS011;9729;52.296;13.260;2022-11-20T03:00:47;27.17;;;15.37;;
19193;SDS011;9729;52.296;13.260;2022-11-20T03:03:14;29.13;;;16.23;;
19193;SDS011;9729;52.296;13.260;2022-11-20T03:05:40;29.00;;;14.77;;
19193;SDS011;9729;52.296;13.260;2022-11-20T03:08:06;30.83;;;15.43;;
19193;SDS011;9729;52.296;13.260;2022-11-20T03:10:33;28.73;;;14.70;;
19193;SDS011;9729;52.296;13.260;2022-11-20T03:12:59;31.97;;;16.20;;
19193;SDS011;9729;52.296;13.260;2022-11-20T03:15:27;28.30;;;15.20;;
19193;SDS011;9729;52.296;13.260;2022-11-20T03:17:53;30.90;;;14.90;;
19193;SDS011;9729;52.296;13.260;2022-11-20T03:20:20;29.30;;;16.57;;
19193;SDS011;9729;52.296;13.260;2022-11-20T03:22:47;26.50;;;14.03;;
19193;SDS011;9729;52.296;13.260;2022-11-20T03:25:13;33.50;;;15.17;;
19193;SDS011;9729;52.296;13.260;2022-11-20T03:27:40;27.77;;;14.73;;
19193;SDS011;9729;52.296;13.260;2022-11-20T03:30:06;36.07;;;16.30;;
19193;SDS011;9729;52.296;13.260;2022-11-20T03:32:35;30.77;;;14.50;;
19193;SDS011;9729;52.296;13.260;2022-11-20T03:35:01;24.13;;;13.90;;
19193;SDS011;9729;52.296;13.260;2022-11-20T03:37:27;28.90;;;15.50;;
19193;SDS011;9729;52.296;13.260;2022-11-20T03:39:54;26.03;;;14.23;;
19193;SDS011;9729;52.296;13.260;2022-11-20T03:42:20;24.33;;;14.13;;
19193;SDS011;9729;52.296;13.260;2022-11-20T03:45:16;28.60;;;13.83;;
19193;SDS011;9729;52.296;13.260;2022-11-20T03:47:44;27.83;;;14.87;;
19193;SDS011;9729;52.296;13.260;2022-11-20T03:50:12;28.90;;;14.70;;
19193;SDS011;9729;52.296;13.260;2022-11-20T03:52:39;26.63;;;13.53;;
19193;SDS011;9729;52.296;13.260;2022-11-20T03:55:05;27.80;;;13.50;;
19193;SDS011;9729;52.296;13.260;2022-11-20T03:57:32;24.07;;;13.97;;
19193;SDS011;9729;52.296;13.260;2022-11-20T03:59:59;27.37;;;14.10;;
19193;SDS011;9729;52.296;13.260;2022-11-20T04:02:25;25.97;;;14.20;;
19193;SDS011;9729;52.296;13.260;2022-11-20T04:04:53;27.97;;;13.77;;
19193;SDS011;9729;52.296;13.260;2022-11-20T04:07:19;25.30;;;13.77;;
19193;SDS011;9729;52.296;13.260;2022-11-20T04:09:46;29.50;;;15.67;;
19193;SDS011;9729;52.296;13.260;2022-11-20T04:12:12;27.77;;;13.93;;
19193;SDS011;9729;52.296;13.260;2022-11-20T04:14:38;24.77;;;13.73;;
19193;SDS011;9729;52.296;13.260;2022-11-20T04:17:04;27.17;;;14.77;;
19193;SDS011;9729;52.296;13.260;2022-11-20T04:19:31;28.43;;;13.70;;
19193;SDS011;9729;52.296;13.260;2022-11-20T04:21:58;27.43;;;14.77;;
19193;SDS011;9729;52.296;13.260;2022-11-20T04:24:25;27.43;;;13.53;;
19193;SDS011;9729;52.296;13.260;2022-11-20T04:26:52;27.27;;;14.57;;
19193;SDS011;9729;52.296;13.260;2022-11-20T04:29:18;27.60;;;14.57;;
19193;SDS011;9729;52.296;13.260;2022-11-20T04:31:44;27.90;;;14.70;;
19193;SDS011;9729;52.296;13.260;2022-11-20T04:34:11;33.63;;;14.67;;
19193;SDS011;9729;52.296;13.260;2022-11-20T04:36:37;25.37;;;13.43;;
19193;SDS011;9729;52.296;13.260;2022-11-20T04:39:05;27.07;;;14.17;;
19193;SDS011;9729;52.296;13.260;2022-11-20T04:41:33;25.33;;;13.27;;
19193;SDS011;9729;52.296;13.260;2022-11-20T04:44:01;27.03;;;14.20;;
19193;SDS011;9729;52.296;13.260;2022-11-20T04:46:30;31.20;;;15.60;;
19193;SDS011;9729;52.296;13.260;2022-11-20T04:48:56;24.90;;;13.30;;
19193;SDS011;9729;52.296;13.260;2022-11-20T04:51:23;27.07;;;13.93;;
19193;SDS011;9729;52.296;13.260;2022-11-20T04:53:49;24.13;;;12.93;;
19193;SDS011;9729;52.296;13.260;2022-11-20T04:56:17;25.20;;;14.00;;
19193;SDS011;9729;52.296;13.260;2022-11-20T04:58:43;26.13;;;13.33;;
19193;SDS011;9729;52.296;13.260;2022-11-20T05:01:10;26.80;;;14.40;;
19193;SDS011;9729;52.296;13.260;2022-11-20T05:03:37;27.37;;;13.57;;
19193;SDS011;9729;52.296;13.260;2022-11-20T05:06:04;31.60;;;13.97;;
19193;SDS011;9729;52.296;13.260;2022-11-20T05:08:32;27.87;;;14.77;;
19193;SDS011;9729;52.296;13.260;2022-11-20T05:10:59;27.97;;;13.67;;
19193;SDS011;9729;52.296;13.260;2022-11-20T05:13:27;28.27;;;14.40;;
19193;SDS011;9729;52.296;13.260;2022-11-20T05:15:54;27.90;;;14.20;;
19193;SDS011;9729;52.296;13.260;2022-11-20T05:18:20;26.00;;;13.67;;
19193;SDS011;9729;52.296;13.260;2022-11-20T05:20:47;31.43;;;14.10;;
19193;SDS011;9729;52.296;13.260;2022-11-20T05:23:20;29.90;;;14.87;;
19193;SDS011;9729;52.296;13.260;2022-11-20T05:25:47;25.53;;;15.00;;
19193;SDS011;9729;52.296;13.260;2022-11-20T05:28:13;23.80;;;12.67;;
19193;SDS011;9729;52.296;13.260;2022-11-20T05:30:41;32.20;;;15.30;;
19193;SDS011;9729;52.296;13.260;2022-11-20T05:33:07;25.17;;;13.93;;
19193;SDS011;9729;52.296;13.260;2022-11-20T05:35:33;27.53;;;13.20;;
19193;SDS011;9729;52.296;13.260;2022-11-20T05:38:00;25.07;;;14.27;;
19193;SDS011;9729;52.296;13.260;2022-11-20T05:40:26;25.97;;;14.10;;
19193;SDS011;9729;52.296;13.260;2022-11-20T05:42:52;30.30;;;13.70;;
19193;SDS011;9729;52.296;13.260;2022-11-20T05:45:19;28.60;;;13.53;;
19193;SDS011;9729;52.296;13.260;2022-11-20T05:47:46;24.87;;;13.97;;
19193;SDS011;9729;52.296;13.260;2022-11-20T05:50:13;28.13;;;14.50;;
19193;SDS011;9729;52.296;13.260;2022-11-20T05:52:39;27.07;;;13.47;;
19193;SDS011;9729;52.296;13.260;2022-11-20T05:55:06;25.17;;;13.67;;
19193;SDS011;9729;52.296;13.260;2022-11-20T05:57:33;28.50;;;14.33;;
19193;SDS011;9729;52.296;13.260;2022-11-20T05:59:59;25.63;;;13.10;;
19193;SDS011;9729;52.296;13.260;2022-11-20T06:02:25;25.47;;;14.20;;
19193;SDS011;9729;52.296;13.260;2022-11-20T06:04:53;25.80;;;13.63;;
19193;SDS011;9729;52.296;13.260;2022-11-20T06:07:19;24.80;;;12.77;;
19193;SDS011;9729;52.296;13.260;2022-11-20T06:09:46;25.77;;;14.07;;
19193;SDS011;9729;52.296;13.260;2022-11-20T06:12:12;31.43;;;14.43;;
19193;SDS011;9729;52.296;13.260;2022-11-20T06:14:38;28.47;;;13.20;;
19193;SDS011;9729;52.296;13.260;2022-11-20T06:17:05;28.33;;;13.50;;
19193;SDS011;9729;52.296;13.260;2022-11-20T06:19:31;25.17;;;13.50;;
19193;SDS011;9729;52.296;13.260;2022-11-20T06:21:58;24.17;;;13.13;;
19193;SDS011;9729;52.296;13.260;2022-11-20T06:24:25;32.93;;;16.70;;
19193;SDS011;9729;52.296;13.260;2022-11-20T06:26:51;32.80;;;14.13;;
19193;SDS011;9729;52.296;13.260;2022-11-20T06:29:17;32.23;;;15.57;;
19193;SDS011;9729;52.296;13.260;2022-11-20T06:31:44;25.63;;;14.17;;
19193;SDS011;9729;52.296;13.260;2022-11-20T06:34:10;25.50;;;13.80;;
19193;SDS011;9729;52.296;13.260;2022-11-20T06:36:36;28.73;;;15.27;;
19193;SDS011;9729;52.296;13.260;2022-11-20T06:39:04;31.50;;;14.77;;
19193;SDS011;9729;52.296;13.260;2022-11-20T06:41:31;26.80;;;14.67;;
19193;SDS011;9729;52.296;13.260;2022-11-20T06:43:57;31.33;;;15.53;;
19193;SDS011;9729;52.296;13.260;2022-11-20T06:46:23;31.77;;;16.30;;
19193;SDS011;9729;52.296;13.260;2022-11-20T06:48:50;34.80;;;16.37;;
19193;SDS011;9729;52.296;13.260;2022-11-20T06:51:16;31.20;;;15.27;;
19193;SDS011;9729;52.296;13.260;2022-11-20T06:53:43;28.60;;;14.77;;
19193;SDS011;9729;52.296;13.260;2022-11-20T06:56:10;28.30;;;15.27;;
19193;SDS011;9729;52.296;13.260;2022-11-20T06:58:37;30.40;;;15.03;;
19193;SDS011;9729;52.296;13.260;2022-11-20T07:01:04;26.63;;;13.77;;
19193;SDS011;9729;52.296;13.260;2022-11-20T07:03:32;25.27;;;14.43;;
19193;SDS011;9729;52.296;13.260;2022-11-20T07:05:58;30.30;;;16.23;;
19193;SDS011;9729;52.296;13.260;2022-11-20T07:08:26;26.50;;;14.90;;
19193;SDS011;9729;52.296;13.260;2022-11-20T07:10:52;28.27;;;15.10;;
19193;SDS011;9729;52.296;13.260;2022-11-20T07:13:20;29.27;;;15.23;;
19193;SDS011;9729;52.296;13.260;2022-11-20T07:15:46;34.33;;;16.43;;
19193;SDS011;9729;52.296;13.260;2022-11-20T07:18:13;27.00;;;15.47;;
19193;SDS011;9729;52.296;13.260;2022-11-20T07:20:39;34.07;;;15.33;;
19193;SDS011;9729;52.296;13.260;2022-11-20T07:23:05;28.47;;;15.57;;
19193;SDS011;9729;52.296;13.260;2022-11-20T07:25:32;31.37;;;15.53;;
19193;SDS011;9729;52.296;13.260;2022-11-20T07:27:58;32.63;;;15.87;;
19193;SDS011;9729;52.296;13.260;2022-11-20T07:30:27;30.80;;;15.30;;
19193;SDS011;9729;52.296;13.260;2022-11-20T07:32:54;35.50;;;17.00;;
19193;SDS011;9729;52.296;13.260;2022-11-20T07:35:20;28.93;;;16.30;;
19193;SDS011;9729;52.296;13.260;2022-11-20T07:37:47;36.03;;;17.07;;
19193;SDS011;9729;52.296;13.260;2022-11-20T07:40:13;32.47;;;15.57;;
19193;SDS011;9729;52.296;13.260;2022-11-20T07:42:46;33.27;;;16.60;;
19193;SDS011;9729;52.296;13.260;2022-11-20T07:45:13;30.30;;;16.73;;
19193;SDS011;9729;52.296;13.260;2022-11-20T07:47:41;30.40;;;17.13;;
19193;SDS011;9729;52.296;13.260;2022-11-20T07:50:08;29.70;;;17.10;;
19193;SDS011;9729;52.296;13.260;2022-11-20T07:52:35;29.07;;;15.27;;
19193;SDS011;9729;52.296;13.260;2022-11-20T07:55:01;37.10;;;18.07;;
19193;SDS011;9729;52.296;13.260;2022-11-20T07:57:28;31.07;;;16.53;;
19193;SDS011;9729;52.296;13.260;2022-11-20T07:59:55;34.17;;;17.80;;
19193;SDS011;9729;52.296;13.260;2022-11-20T08:02:21;34.30;;;17.87;;
19193;SDS011;9729;52.296;13.260;2022-11-20T08:04:49;36.63;;;17.90;;
19193;SDS011;9729;52.296;13.260;2022-11-20T08:07:15;28.93;;;14.97;;
19193;SDS011;9729;52.296;13.260;2022-11-20T08:09:41;26.80;;;14.60;;
19193;SDS011;9729;52.296;13.260;2022-11-20T08:12:09;31.23;;;15.80;;
19193;SDS011;9729;52.296;13.260;2022-11-20T08:15:00;29.17;;;14.17;;
19193;SDS011;9729;52.296;13.260;2022-11-20T08:17:27;32.47;;;16.20;;
19193;SDS011;9729;52.296;13.260;2022-11-20T08:19:54;29.33;;;15.03;;
19193;SDS011;9729;52.296;13.260;2022-11-20T08:22:21;32.10;;;16.70;;
19193;SDS011;9729;52.296;13.260;2022-11-20T08:24:47;32.40;;;15.73;;
19193;SDS011;9729;52.296;13.260;2022-11-20T08:27:14;29.00;;;15.67;;
19193;SDS011;9729;52.296;13.260;2022-11-20T08:29:40;28.60;;;16.10;;
19193;SDS011;9729;52.296;13.260;2022-11-20T08:32:07;27.53;;;15.13;;
19193;SDS011;9729;52.296;13.260;2022-11-20T08:34:33;32.20;;;15.30;;
19193;SDS011;9729;52.296;13.260;2022-11-20T08:37:02;27.53;;;14.17;;
19193;SDS011;9729;52.296;13.260;2022-11-20T08:39:28;28.57;;;14.60;;
19193;SDS011;9729;52.296;13.260;2022-11-20T08:41:55;30.07;;;14.60;;
19193;SDS011;9729;52.296;13.260;2022-11-20T08:44:21;29.43;;;16.03;;
19193;SDS011;9729;52.296;13.260;2022-11-20T08:46:47;27.00;;;15.27;;
19193;SDS011;9729;52.296;13.260;2022-11-20T08:49:14;29.63;;;15.80;;
19193;SDS011;9729;52.296;13.260;2022-11-20T08:51:40;26.83;;;14.83;;
19193;SDS011;9729;52.296;13.260;2022-11-20T08:54:08;28.73;;;14.43;;
19193;SDS011;9729;52.296;13.260;2022-11-20T08:56:35;27.00;;;15.50;;
19193;SDS011;9729;52.296;13.260;2022-11-20T08:59:02;32.67;;;16.20;;
19193;SDS011;9729;52.296;13.260;2022-11-20T09:01:28;26.63;;;13.93;;
19193;SDS011;9729;52.296;13.260;2022-11-20T09:03:55;30.33;;;15.53;;
19193;SDS011;9729;52.296;13.260;2022-11-20T09:06:22;27.97;;;15.40;;
19193;SDS011;9729;52.296;13.260;2022-11-20T09:08:51;26.50;;;14.33;;
19193;SDS011;9729;52.296;13.260;2022-11-20T09:11:19;33.63;;;15.03;;
19193;SDS011;9729;52.296;13.260;2022-11-20T09:13:45;33.07;;;16.07;;
19193;SDS011;9729;52.296;13.260;2022-11-20T09:16:11;29.00;;;15.40;;
19193;SDS011;9729;52.296;13.260;2022-11-20T09:18:38;28.50;;;14.73;;
19193;SDS011;9729;52.296;13.260;2022-11-20T09:21:05;30.33;;;15.30;;
19193;SDS011;9729;52.296;13.260;2022-11-20T09:23:38;27.03;;;16.40;;
19193;SDS011;9729;52.296;13.260;2022-11-20T09:26:05;28.47;;;15.13;;
19193;SDS011;9729;52.296;13.260;2022-11-20T09:28:34;27.40;;;16.10;;
19193;SDS011;9729;52.296;13.260;2022-11-20T09:31:00;27.50;;;14.77;;
19193;SDS011;9729;52.296;13.260;2022-11-20T09:33:27;26.30;;;15.00;;
19193;SDS011;9729;52.296;13.260;2022-11-20T09:35:53;33.23;;;16.73;;
19193;SDS011;9729;52.296;13.260;2022-11-20T09:38:19;26.07;;;14.60;;
19193;SDS011;9729;52.296;13.260;2022-11-20T09:40:47;25.23;;;14.20;;
19193;SDS011;9729;52.296;13.260;2022-11-20T09:43:18;28.40;;;15.37;;
19193;SDS011;9729;52.296;13.260;2022-11-20T09:45:57;34.10;;;16.43;;
19193;SDS011;9729;52.296;13.260;2022-11-20T09:48:36;29.13;;;15.97;;
19193;SDS011;9729;52.296;13.260;2022-11-20T09:51:11;31.37;;;14.97;;
19193;SDS011;9729;52.296;13.260;2022-11-20T09:53:45;30.97;;;14.77;;
19193;SDS011;9729;52.296;13.260;2022-11-20T09:56:15;29.33;;;15.40;;
19193;SDS011;9729;52.296;13.260;2022-11-20T09:58:44;26.40;;;14.83;;
19193;SDS011;9729;52.296;13.260;2022-11-20T10:01:13;26.10;;;14.80;;
19193;SDS011;9729;52.296;13.260;2022-11-20T10:03:45;26.60;;;14.80;;
19193;SDS011;9729;52.296;13.260;2022-11-20T10:06:18;30.80;;;16.17;;
19193;SDS011;9729;52.296;13.260;2022-11-20T10:08:50;25.37;;;14.37;;
19193;SDS011;9729;52.296;13.260;2022-11-20T10:11:21;30.13;;;15.53;;
19193;SDS011;9729;52.296;13.260;2022-11-20T10:13:52;30.83;;;15.63;;
19193;SDS011;9729;52.296;13.260;2022-11-20T10:16:26;30.33;;;15.87;;
19193;SDS011;9729;52.296;13.260;2022-11-20T10:18:59;25.73;;;14.30;;
19193;SDS011;9729;52.296;13.260;2022-11-20T10:21:30;27.47;;;15.53;;
19193;SDS011;9729;52.296;13.260;2022-11-20T10:24:23;28.30;;;16.00;;
19193;SDS011;9729;52.296;13.260;2022-11-20T10:26:56;27.50;;;16.00;;
19193;SDS011;9729;52.296;13.260;2022-11-20T10:29:27;30.07;;;15.43;;
19193;SDS011;9729;52.296;13.260;2022-11-20T10:32:00;26.63;;;15.73;;
19193;SDS011;9729;52.296;13.260;2022-11-20T10:34:28;31.43;;;17.43;;
19193;SDS011;9729;52.296;13.260;2022-11-20T10:36:58;30.90;;;16.93;;
19193;SDS011;9729;52.296;13.260;2022-11-20T10:39:30;30.87;;;16.00;;
19193;SDS011;9729;52.296;13.260;2022-11-20T10:42:00;29.97;;;14.73;;
19193;SDS011;9729;52.296;13.260;2022-11-20T10:44:27;28.10;;;16.37;;
19193;SDS011;9729;52.296;13.260;2022-11-20T10:47:14;35.80;;;17.10;;
19193;SDS011;9729;52.296;13.260;2022-11-20T10:49:41;31.67;;;16.37;;
19193;SDS011;9729;52.296;13.260;2022-11-20T10:52:09;29.70;;;15.33;;
19193;SDS011;9729;52.296;13.260;2022-11-20T10:54:43;30.93;;;16.40;;
19193;SDS011;9729;52.296;13.260;2022-11-20T10:57:18;36.77;;;16.90;;
19193;SDS011;9729;52.296;13.260;2022-11-20T10:59:55;32.33;;;16.80;;
19193;SDS011;9729;52.296;13.260;2022-11-20T11:02:32;26.03;;;15.73;;
19193;SDS011;9729;52.296;13.260;2022-11-20T11:05:04;28.63;;;16.57;;
19193;SDS011;9729;52.296;13.260;2022-11-20T11:07:37;31.33;;;16.60;;
19193;SDS011;9729;52.296;13.260;2022-11-20T11:10:11;28.23;;;14.20;;
19193;SDS011;9729;52.296;13.260;2022-11-20T11:12:42;25.90;;;14.73;;
19193;SDS011;9729;52.296;13.260;2022-11-20T11:15:11;29.50;;;14.70;;
19193;SDS011;9729;52.296;13.260;2022-11-20T11:17:45;31.67;;;16.00;;
19193;SDS011;9729;52.296;13.260;2022-11-20T11:20:14;30.53;;;14.90;;
19193;SDS011;9729;52.296;13.260;2022-11-20T11:22:44;30.77;;;17.17;;
19193;SDS011;9729;52.296;13.260;2022-11-20T11:25:18;32.40;;;15.63;;
19193;SDS011;9729;52.296;13.260;2022-11-20T11:27:46;31.47;;;16.13;;
19193;SDS011;9729;52.296;13.260;2022-11-20T11:30:13;25.10;;;13.03;;
19193;SDS011;9729;52.296;13.260;2022-11-20T11:32:42;30.63;;;14.87;;
19193;SDS011;9729;52.296;13.260;2022-11-20T11:37:52;24.53;;;13.07;;
19193;SDS011;9729;52.296;13.260;2022-11-20T11:40:20;24.50;;;14.07;;
19193;SDS011;9729;52.296;13.260;2022-11-20T11:42:50;25.53;;;13.90;;
19193;SDS011;9729;52.296;13.260;2022-11-20T11:45:19;24.57;;;13.73;;
19193;SDS011;9729;52.296;13.260;2022-11-20T11:47:46;24.47;;;12.33;;
19193;SDS011;9729;52.296;13.260;2022-11-20T11:50:18;17.20;;;10.07;;
19193;SDS011;9729;52.296;13.260;2022-11-20T11:52:48;17.97;;;10.03;;
19193;SDS011;9729;52.296;13.260;2022-11-20T11:55:19;20.33;;;10.60;;
19193;SDS011;9729;52.296;13.260;2022-11-20T11:57:52;19.17;;;9.53;;
19193;SDS011;9729;52.296;13.260;2022-11-20T12:00:21;17.03;;;9.67;;
19193;SDS011;9729;52.296;13.260;2022-11-20T12:02:52;20.90;;;10.40;;
19193;SDS011;9729;52.296;13.260;2022-11-20T12:05:23;18.07;;;9.50;;
19193;SDS011;9729;52.296;13.260;2022-11-20T12:07:51;19.30;;;9.23;;
19193;SDS011;9729;52.296;13.260;2022-11-20T12:10:21;16.20;;;9.70;;
19193;SDS011;9729;52.296;13.260;2022-11-20T12:12:50;22.17;;;10.37;;
19193;SDS011;9729;52.296;13.260;2022-11-20T12:15:23;18.87;;;10.47;;
19193;SDS011;9729;52.296;13.260;2022-11-20T12:17:54;20.57;;;9.63;;
19193;SDS011;9729;52.296;13.260;2022-11-20T12:20:21;18.10;;;10.93;;
19193;SDS011;9729;52.296;13.260;2022-11-20T12:22:50;15.87;;;8.10;;
19193;SDS011;9729;52.296;13.260;2022-11-20T12:25:20;16.63;;;9.00;;
19193;SDS011;9729;52.296;13.260;2022-11-20T12:27:52;22.87;;;10.30;;
19193;SDS011;9729;52.296;13.260;2022-11-20T12:30:24;17.70;;;9.87;;
19193;SDS011;9729;52.296;13.260;2022-11-20T12:32:54;17.77;;;10.10;;
19193;SDS011;9729;52.296;13.260;2022-11-20T12:35:34;16.37;;;9.87;;
19193;SDS011;9729;52.296;13.260;2022-11-20T12:38:20;25.27;;;11.10;;
19193;SDS011;9729;52.296;13.260;2022-11-20T12:41:12;21.30;;;10.00;;
19193;SDS011;9729;52.296;13.260;2022-11-20T12:44:04;18.50;;;9.93;;
19193;SDS011;9729;52.296;13.260;2022-11-20T12:46:56;19.73;;;11.27;;
19193;SDS011;9729;52.296;13.260;2022-11-20T12:49:36;22.83;;;12.57;;
19193;SDS011;9729;52.296;13.260;2022-11-20T12:52:09;24.37;;;11.93;;
19193;SDS011;9729;52.296;13.260;2022-11-20T12:54:50;20.30;;;11.37;;
19193;SDS011;9729;52.296;13.260;2022-11-20T12:57:27;20.40;;;10.30;;
19193;SDS011;9729;52.296;13.260;2022-11-20T13:00:01;19.80;;;10.63;;
19193;SDS011;9729;52.296;13.260;2022-11-20T13:02:38;20.43;;;10.13;;
19193;SDS011;9729;52.296;13.260;2022-11-20T13:05:17;20.67;;;10.63;;
19193;SDS011;9729;52.296;13.260;2022-11-20T13:07:46;24.20;;;12.27;;
19193;SDS011;9729;52.296;13.260;2022-11-20T13:10:14;21.30;;;10.73;;
19193;SDS011;9729;52.296;13.260;2022-11-20T13:12:45;21.43;;;11.27;;
19193;SDS011;9729;52.296;13.260;2022-11-20T13:15:16;23.67;;;11.57;;
19193;SDS011;9729;52.296;13.260;2022-11-20T13:17:46;19.30;;;9.97;;
19193;SDS011;9729;52.296;13.260;2022-11-20T13:20:18;20.73;;;11.47;;
19193;SDS011;9729;52.296;13.260;2022-11-20T13:22:45;18.13;;;10.47;;
19193;SDS011;9729;52.296;13.260;2022-11-20T13:25:22;23.53;;;11.47;;
19193;SDS011;9729;52.296;13.260;2022-11-20T13:27:48;23.83;;;10.77;;
19193;SDS011;9729;52.296;13.260;2022-11-20T13:30:16;19.27;;;10.87;;
19193;SDS011;9729;52.296;13.260;2022-11-20T13:32:47;19.83;;;10.93;;
19193;SDS011;9729;52.296;13.260;2022-11-20T13:35:24;25.63;;;12.43;;
19193;SDS011;9729;52.296;13.260;2022-11-20T13:37:59;23.03;;;12.70;;
19193;SDS011;9729;52.296;13.260;2022-11-20T13:40:26;21.03;;;11.50;;
19193;SDS011;9729;52.296;13.260;2022-11-20T13:42:55;26.83;;;11.77;;
19193;SDS011;9729;52.296;13.260;2022-11-20T13:45:23;27.97;;;12.10;;
19193;SDS011;9729;52.296;13.260;2022-11-20T13:47:51;23.37;;;10.10;;
19193;SDS011;9729;52.296;13.260;2022-11-20T13:50:18;21.83;;;10.97;;
19193;SDS011;9729;52.296;13.260;2022-11-20T13:52:48;22.00;;;11.50;;
19193;SDS011;9729;52.296;13.260;2022-11-20T13:55:19;25.07;;;12.97;;
19193;SDS011;9729;52.296;13.260;2022-11-20T13:57:53;24.07;;;11.60;;
19193;SDS011;9729;52.296;13.260;2022-11-20T14:00:25;26.67;;;14.53;;
19193;SDS011;9729;52.296;13.260;2022-11-20T14:02:58;21.20;;;12.03;;
19193;SDS011;9729;52.296;13.260;2022-11-20T14:05:27;31.37;;;13.77;;
19193;SDS011;9729;52.296;13.260;2022-11-20T14:07:55;25.37;;;15.47;;
19193;SDS011;9729;52.296;13.260;2022-11-20T14:10:23;25.97;;;13.13;;
19193;SDS011;9729;52.296;13.260;2022-11-20T14:12:50;23.50;;;11.10;;
19193;SDS011;9729;52.296;13.260;2022-11-20T14:15:27;23.97;;;13.43;;
19193;SDS011;9729;52.296;13.260;2022-11-20T14:17:55;30.20;;;12.93;;
19193;SDS011;9729;52.296;13.260;2022-11-20T14:20:22;27.73;;;13.83;;
19193;SDS011;9729;52.296;13.260;2022-11-20T14:22:50;26.37;;;13.60;;
19193;SDS011;9729;52.296;13.260;2022-11-20T14:25:22;34.77;;;13.57;;
19193;SDS011;9729;52.296;13.260;2022-11-20T14:27:52;22.53;;;13.27;;
19193;SDS011;9729;52.296;13.260;2022-11-20T14:30:20;29.23;;;15.07;;
19193;SDS011;9729;52.296;13.260;2022-11-20T14:32:47;26.80;;;13.50;;